sensor_id;sensor_type;location;lat;lon;timestamp;P1;durP1;ratioP1;P2;durP2;ratioP2
75377;SDS011;63959;51.960;5.886;2022-11-27T00:01:10;11.07;;;3.67;;
75377;SDS011;63959;51.960;5.886;2022-11-27T00:03:39;11.35;;;3.40;;
75377;SDS011;63959;51.960;5.886;2022-11-27T00:06:10;8.65;;;3.63;;
75377;SDS011;63959;51.960;5.886;2022-11-27T00:08:43;11.15;;;3.72;;
75377;SDS011;63959;51.960;5.886;2022-11-27T00:11:13;16.42;;;5.05;;
75377;SDS011;63959;51.960;5.886;2022-11-27T00:13:41;18.80;;;4.90;;
75377;SDS011;63959;51.960;5.886;2022-11-27T00:16:10;12.10;;;4.57;;
75377;SDS011;63959;51.960;5.886;2022-11-27T00:18:39;8.95;;;3.35;;
75377;SDS011;63959;51.960;5.886;2022-11-27T00:21:09;12.55;;;4.50;;
75377;SDS011;63959;51.960;5.886;2022-11-27T00:23:38;8.45;;;3.25;;
75377;SDS011;63959;51.960;5.886;2022-11-27T00:26:10;12.73;;;4.45;;
75377;SDS011;63959;51.960;5.886;2022-11-27T00:28:38;14.45;;;3.67;;
75377;SDS011;63959;51.960;5.886;2022-11-27T00:31:09;8.52;;;3.88;;
75377;SDS011;63959;51.960;5.886;2022-11-27T00:33:39;11.00;;;4.60;;
75377;SDS011;63959;51.960;5.886;2022-11-27T00:36:08;15.30;;;5.00;;
75377;SDS011;63959;51.960;5.886;2022-11-27T00:38:37;14.88;;;4.20;;
75377;SDS011;63959;51.960;5.886;2022-11-27T00:41:06;13.77;;;4.25;;
75377;SDS011;63959;51.960;5.886;2022-11-27T00:43:37;10.60;;;4.25;;
75377;SDS011;63959;51.960;5.886;2022-11-27T00:46:06;10.88;;;3.80;;
75377;SDS011;63959;51.960;5.886;2022-11-27T00:48:35;11.38;;;4.40;;
75377;SDS011;63959;51.960;5.886;2022-11-27T00:51:04;12.85;;;5.20;;
75377;SDS011;63959;51.960;5.886;2022-11-27T00:53:34;18.08;;;5.93;;
75377;SDS011;63959;51.960;5.886;2022-11-27T00:56:03;12.63;;;5.25;;
75377;SDS011;63959;51.960;5.886;2022-11-27T00:58:31;10.20;;;4.78;;
75377;SDS011;63959;51.960;5.886;2022-11-27T01:01:03;13.23;;;5.35;;
75377;SDS011;63959;51.960;5.886;2022-11-27T01:03:33;12.48;;;4.65;;
75377;SDS011;63959;51.960;5.886;2022-11-27T01:06:02;14.85;;;5.85;;
75377;SDS011;63959;51.960;5.886;2022-11-27T01:08:31;15.50;;;4.95;;
75377;SDS011;63959;51.960;5.886;2022-11-27T01:10:59;19.70;;;6.38;;
75377;SDS011;63959;51.960;5.886;2022-11-27T01:13:30;16.95;;;5.07;;
75377;SDS011;63959;51.960;5.886;2022-11-27T01:15:59;18.23;;;6.05;;
75377;SDS011;63959;51.960;5.886;2022-11-27T01:18:30;11.98;;;4.82;;
75377;SDS011;63959;51.960;5.886;2022-11-27T01:20:59;14.77;;;5.20;;
75377;SDS011;63959;51.960;5.886;2022-11-27T01:23:28;13.13;;;5.55;;
75377;SDS011;63959;51.960;5.886;2022-11-27T01:25:58;17.63;;;5.55;;
75377;SDS011;63959;51.960;5.886;2022-11-27T01:28:27;9.48;;;4.13;;
75377;SDS011;63959;51.960;5.886;2022-11-27T01:30:56;12.07;;;4.38;;
75377;SDS011;63959;51.960;5.886;2022-11-27T01:33:25;10.07;;;4.10;;
75377;SDS011;63959;51.960;5.886;2022-11-27T01:35:57;13.75;;;5.30;;
75377;SDS011;63959;51.960;5.886;2022-11-27T01:38:26;13.75;;;5.53;;
75377;SDS011;63959;51.960;5.886;2022-11-27T01:40:56;14.80;;;5.72;;
75377;SDS011;63959;51.960;5.886;2022-11-27T01:43:35;12.95;;;5.25;;
75377;SDS011;63959;51.960;5.886;2022-11-27T01:46:04;11.57;;;5.03;;
75377;SDS011;63959;51.960;5.886;2022-11-27T01:48:33;11.77;;;4.95;;
75377;SDS011;63959;51.960;5.886;2022-11-27T01:51:04;8.85;;;4.25;;
75377;SDS011;63959;51.960;5.886;2022-11-27T01:53:33;11.15;;;4.28;;
75377;SDS011;63959;51.960;5.886;2022-11-27T01:56:01;10.05;;;4.13;;
75377;SDS011;63959;51.960;5.886;2022-11-27T01:58:30;10.98;;;3.90;;
75377;SDS011;63959;51.960;5.886;2022-11-27T02:00:59;15.00;;;5.57;;
75377;SDS011;63959;51.960;5.886;2022-11-27T02:03:28;17.63;;;7.10;;
75377;SDS011;63959;51.960;5.886;2022-11-27T02:05:56;17.77;;;5.80;;
75377;SDS011;63959;51.960;5.886;2022-11-27T02:08:27;13.50;;;5.55;;
75377;SDS011;63959;51.960;5.886;2022-11-27T02:10:58;11.02;;;4.53;;
75377;SDS011;63959;51.960;5.886;2022-11-27T02:13:31;17.83;;;5.80;;
75377;SDS011;63959;51.960;5.886;2022-11-27T02:16:04;18.02;;;6.65;;
75377;SDS011;63959;51.960;5.886;2022-11-27T02:18:38;15.18;;;5.10;;
75377;SDS011;63959;51.960;5.886;2022-11-27T02:21:10;12.60;;;4.35;;
75377;SDS011;63959;51.960;5.886;2022-11-27T02:26:35;15.02;;;5.13;;
75377;SDS011;63959;51.960;5.886;2022-11-27T02:29:11;12.95;;;4.63;;
75377;SDS011;63959;51.960;5.886;2022-11-27T02:31:44;13.43;;;5.18;;
75377;SDS011;63959;51.960;5.886;2022-11-27T02:34:18;15.43;;;6.40;;
75377;SDS011;63959;51.960;5.886;2022-11-27T02:36:52;14.25;;;4.82;;
75377;SDS011;63959;51.960;5.886;2022-11-27T02:39:24;13.48;;;5.07;;
75377;SDS011;63959;51.960;5.886;2022-11-27T02:41:56;15.65;;;5.50;;
75377;SDS011;63959;51.960;5.886;2022-11-27T02:44:30;9.82;;;3.85;;
75377;SDS011;63959;51.960;5.886;2022-11-27T02:47:01;14.13;;;4.60;;
75377;SDS011;63959;51.960;5.886;2022-11-27T02:49:30;20.00;;;6.88;;
75377;SDS011;63959;51.960;5.886;2022-11-27T02:52:00;12.00;;;4.40;;
75377;SDS011;63959;51.960;5.886;2022-11-27T02:54:29;8.93;;;3.70;;
75377;SDS011;63959;51.960;5.886;2022-11-27T02:57:01;11.48;;;4.57;;
75377;SDS011;63959;51.960;5.886;2022-11-27T02:59:34;14.57;;;5.00;;
75377;SDS011;63959;51.960;5.886;2022-11-27T03:02:05;12.13;;;4.70;;
75377;SDS011;63959;51.960;5.886;2022-11-27T03:04:36;9.68;;;3.80;;
75377;SDS011;63959;51.960;5.886;2022-11-27T03:07:07;9.55;;;4.10;;
75377;SDS011;63959;51.960;5.886;2022-11-27T03:09:38;11.18;;;3.63;;
75377;SDS011;63959;51.960;5.886;2022-11-27T03:12:07;9.43;;;4.07;;
75377;SDS011;63959;51.960;5.886;2022-11-27T03:14:39;13.93;;;4.40;;
75377;SDS011;63959;51.960;5.886;2022-11-27T03:17:10;11.73;;;4.63;;
75377;SDS011;63959;51.960;5.886;2022-11-27T03:19:46;14.27;;;4.10;;
75377;SDS011;63959;51.960;5.886;2022-11-27T03:22:15;11.60;;;3.88;;
75377;SDS011;63959;51.960;5.886;2022-11-27T03:24:44;13.05;;;3.70;;
75377;SDS011;63959;51.960;5.886;2022-11-27T03:27:15;10.38;;;3.50;;
75377;SDS011;63959;51.960;5.886;2022-11-27T03:29:48;14.52;;;4.05;;
75377;SDS011;63959;51.960;5.886;2022-11-27T03:32:18;10.65;;;4.30;;
75377;SDS011;63959;51.960;5.886;2022-11-27T03:34:47;9.88;;;3.63;;
75377;SDS011;63959;51.960;5.886;2022-11-27T03:37:16;12.50;;;3.80;;
75377;SDS011;63959;51.960;5.886;2022-11-27T03:39:45;10.98;;;3.40;;
75377;SDS011;63959;51.960;5.886;2022-11-27T03:42:16;15.05;;;4.55;;
75377;SDS011;63959;51.960;5.886;2022-11-27T03:44:51;11.25;;;3.40;;
75377;SDS011;63959;51.960;5.886;2022-11-27T03:47:25;10.27;;;3.45;;
75377;SDS011;63959;51.960;5.886;2022-11-27T03:50:01;11.75;;;4.35;;
75377;SDS011;63959;51.960;5.886;2022-11-27T03:52:32;12.95;;;3.58;;
75377;SDS011;63959;51.960;5.886;2022-11-27T03:55:04;14.45;;;4.40;;
75377;SDS011;63959;51.960;5.886;2022-11-27T03:57:36;8.68;;;3.60;;
75377;SDS011;63959;51.960;5.886;2022-11-27T04:00:13;10.75;;;3.70;;
75377;SDS011;63959;51.960;5.886;2022-11-27T04:05:11;6.35;;;2.65;;
75377;SDS011;63959;51.960;5.886;2022-11-27T04:07:40;9.88;;;3.33;;
75377;SDS011;63959;51.960;5.886;2022-11-27T04:10:09;12.20;;;4.68;;
75377;SDS011;63959;51.960;5.886;2022-11-27T04:12:38;8.95;;;3.47;;
75377;SDS011;63959;51.960;5.886;2022-11-27T04:15:07;9.13;;;3.60;;
75377;SDS011;63959;51.960;5.886;2022-11-27T04:17:39;11.27;;;3.75;;
75377;SDS011;63959;51.960;5.886;2022-11-27T04:20:09;9.85;;;3.38;;
75377;SDS011;63959;51.960;5.886;2022-11-27T04:22:39;11.80;;;4.50;;
75377;SDS011;63959;51.960;5.886;2022-11-27T04:25:08;7.18;;;2.50;;
75377;SDS011;63959;51.960;5.886;2022-11-27T04:27:37;9.30;;;3.67;;
75377;SDS011;63959;51.960;5.886;2022-11-27T04:30:06;9.48;;;3.05;;
75377;SDS011;63959;51.960;5.886;2022-11-27T04:32:35;8.50;;;3.20;;
75377;SDS011;63959;51.960;5.886;2022-11-27T04:35:07;9.35;;;3.60;;
75377;SDS011;63959;51.960;5.886;2022-11-27T04:37:36;12.27;;;3.70;;
75377;SDS011;63959;51.960;5.886;2022-11-27T04:40:05;11.82;;;3.83;;
75377;SDS011;63959;51.960;5.886;2022-11-27T04:42:34;7.40;;;3.10;;
75377;SDS011;63959;51.960;5.886;2022-11-27T04:45:04;8.80;;;2.60;;
75377;SDS011;63959;51.960;5.886;2022-11-27T04:47:33;10.82;;;3.90;;
75377;SDS011;63959;51.960;5.886;2022-11-27T04:50:02;11.48;;;4.18;;
75377;SDS011;63959;51.960;5.886;2022-11-27T04:52:33;7.00;;;2.95;;
75377;SDS011;63959;51.960;5.886;2022-11-27T04:55:02;11.25;;;3.50;;
75377;SDS011;63959;51.960;5.886;2022-11-27T04:57:31;13.98;;;4.20;;
75377;SDS011;63959;51.960;5.886;2022-11-27T05:00:00;9.50;;;3.28;;
75377;SDS011;63959;51.960;5.886;2022-11-27T05:02:29;9.70;;;3.20;;
75377;SDS011;63959;51.960;5.886;2022-11-27T05:04:58;8.40;;;3.03;;
75377;SDS011;63959;51.960;5.886;2022-11-27T05:07:26;9.90;;;3.03;;
75377;SDS011;63959;51.960;5.886;2022-11-27T05:09:57;6.93;;;2.63;;
75377;SDS011;63959;51.960;5.886;2022-11-27T05:12:26;10.57;;;3.70;;
75377;SDS011;63959;51.960;5.886;2022-11-27T05:14:55;9.60;;;3.55;;
75377;SDS011;63959;51.960;5.886;2022-11-27T05:17:23;11.27;;;3.70;;
75377;SDS011;63959;51.960;5.886;2022-11-27T05:19:52;10.75;;;4.53;;
75377;SDS011;63959;51.960;5.886;2022-11-27T05:22:21;9.65;;;3.17;;
75377;SDS011;63959;51.960;5.886;2022-11-27T05:24:49;10.60;;;3.45;;
75377;SDS011;63959;51.960;5.886;2022-11-27T05:27:21;11.38;;;3.88;;
75377;SDS011;63959;51.960;5.886;2022-11-27T05:29:50;9.25;;;3.63;;
75377;SDS011;63959;51.960;5.886;2022-11-27T05:32:18;11.90;;;3.85;;
75377;SDS011;63959;51.960;5.886;2022-11-27T05:34:47;10.20;;;2.88;;
75377;SDS011;63959;51.960;5.886;2022-11-27T05:37:16;9.63;;;2.92;;
75377;SDS011;63959;51.960;5.886;2022-11-27T05:39:45;10.35;;;4.13;;
75377;SDS011;63959;51.960;5.886;2022-11-27T05:42:14;11.52;;;4.47;;
75377;SDS011;63959;51.960;5.886;2022-11-27T05:44:47;11.35;;;3.97;;
75377;SDS011;63959;51.960;5.886;2022-11-27T05:47:16;10.10;;;4.13;;
75377;SDS011;63959;51.960;5.886;2022-11-27T05:49:44;9.82;;;3.70;;
75377;SDS011;63959;51.960;5.886;2022-11-27T05:52:13;12.23;;;4.53;;
75377;SDS011;63959;51.960;5.886;2022-11-27T05:54:42;9.18;;;3.60;;
75377;SDS011;63959;51.960;5.886;2022-11-27T05:57:11;13.45;;;4.32;;
75377;SDS011;63959;51.960;5.886;2022-11-27T05:59:39;12.32;;;3.80;;
75377;SDS011;63959;51.960;5.886;2022-11-27T06:02:11;10.13;;;3.35;;
75377;SDS011;63959;51.960;5.886;2022-11-27T06:04:40;14.98;;;4.13;;
75377;SDS011;63959;51.960;5.886;2022-11-27T06:07:08;11.80;;;3.80;;
75377;SDS011;63959;51.960;5.886;2022-11-27T06:09:37;9.77;;;4.10;;
75377;SDS011;63959;51.960;5.886;2022-11-27T06:12:06;15.45;;;4.90;;
75377;SDS011;63959;51.960;5.886;2022-11-27T06:14:35;9.02;;;3.35;;
75377;SDS011;63959;51.960;5.886;2022-11-27T06:17:03;13.85;;;4.25;;
75377;SDS011;63959;51.960;5.886;2022-11-27T06:19:35;12.68;;;4.85;;
75377;SDS011;63959;51.960;5.886;2022-11-27T06:22:03;10.95;;;4.13;;
75377;SDS011;63959;51.960;5.886;2022-11-27T06:24:32;10.48;;;3.90;;
75377;SDS011;63959;51.960;5.886;2022-11-27T06:27:01;9.90;;;3.60;;
75377;SDS011;63959;51.960;5.886;2022-11-27T06:29:29;10.07;;;4.10;;
75377;SDS011;63959;51.960;5.886;2022-11-27T06:31:58;9.80;;;4.32;;
75377;SDS011;63959;51.960;5.886;2022-11-27T06:34:27;15.40;;;4.80;;
75377;SDS011;63959;51.960;5.886;2022-11-27T06:36:58;9.25;;;3.58;;
75377;SDS011;63959;51.960;5.886;2022-11-27T06:39:27;10.20;;;3.05;;
75377;SDS011;63959;51.960;5.886;2022-11-27T06:41:55;12.52;;;4.65;;
75377;SDS011;63959;51.960;5.886;2022-11-27T06:44:24;9.60;;;4.47;;
75377;SDS011;63959;51.960;5.886;2022-11-27T06:46:53;16.35;;;4.25;;
75377;SDS011;63959;51.960;5.886;2022-11-27T06:49:23;11.95;;;4.43;;
75377;SDS011;63959;51.960;5.886;2022-11-27T06:51:51;8.82;;;3.40;;
75377;SDS011;63959;51.960;5.886;2022-11-27T06:54:23;13.70;;;4.82;;
75377;SDS011;63959;51.960;5.886;2022-11-27T06:56:52;11.52;;;4.35;;
75377;SDS011;63959;51.960;5.886;2022-11-27T06:59:20;10.40;;;4.10;;
75377;SDS011;63959;51.960;5.886;2022-11-27T07:01:49;12.13;;;4.03;;
75377;SDS011;63959;51.960;5.886;2022-11-27T07:04:18;7.80;;;3.40;;
75377;SDS011;63959;51.960;5.886;2022-11-27T07:06:47;12.07;;;4.32;;
75377;SDS011;63959;51.960;5.886;2022-11-27T07:09:16;14.73;;;4.32;;
75377;SDS011;63959;51.960;5.886;2022-11-27T07:11:47;12.52;;;3.95;;
75377;SDS011;63959;51.960;5.886;2022-11-27T07:14:16;12.00;;;4.70;;
75377;SDS011;63959;51.960;5.886;2022-11-27T07:16:46;11.85;;;4.10;;
75377;SDS011;63959;51.960;5.886;2022-11-27T07:19:15;11.80;;;5.38;;
75377;SDS011;63959;51.960;5.886;2022-11-27T07:21:44;12.75;;;3.63;;
75377;SDS011;63959;51.960;5.886;2022-11-27T07:24:12;9.38;;;3.47;;
75377;SDS011;63959;51.960;5.886;2022-11-27T07:26:41;11.73;;;4.28;;
75377;SDS011;63959;51.960;5.886;2022-11-27T07:29:12;10.20;;;4.47;;
75377;SDS011;63959;51.960;5.886;2022-11-27T07:31:41;11.43;;;4.50;;
75377;SDS011;63959;51.960;5.886;2022-11-27T07:34:13;14.05;;;5.07;;
75377;SDS011;63959;51.960;5.886;2022-11-27T07:36:41;13.27;;;5.10;;
75377;SDS011;63959;51.960;5.886;2022-11-27T07:39:10;13.95;;;5.50;;
75377;SDS011;63959;51.960;5.886;2022-11-27T07:41:39;16.70;;;5.32;;
75377;SDS011;63959;51.960;5.886;2022-11-27T07:44:08;8.77;;;3.70;;
75377;SDS011;63959;51.960;5.886;2022-11-27T07:46:39;12.32;;;4.65;;
75377;SDS011;63959;51.960;5.886;2022-11-27T07:49:08;15.77;;;5.25;;
75377;SDS011;63959;51.960;5.886;2022-11-27T07:51:37;12.05;;;4.70;;
75377;SDS011;63959;51.960;5.886;2022-11-27T07:54:05;12.05;;;4.97;;
75377;SDS011;63959;51.960;5.886;2022-11-27T07:56:34;15.05;;;5.78;;
75377;SDS011;63959;51.960;5.886;2022-11-27T07:59:03;13.27;;;5.50;;
75377;SDS011;63959;51.960;5.886;2022-11-27T08:01:31;11.45;;;5.25;;
75377;SDS011;63959;51.960;5.886;2022-11-27T08:04:03;14.57;;;5.10;;
75377;SDS011;63959;51.960;5.886;2022-11-27T08:06:32;10.57;;;4.97;;
75377;SDS011;63959;51.960;5.886;2022-11-27T08:09:00;12.20;;;5.90;;
75377;SDS011;63959;51.960;5.886;2022-11-27T08:11:30;13.73;;;5.57;;
75377;SDS011;63959;51.960;5.886;2022-11-27T08:14:00;13.73;;;5.82;;
75377;SDS011;63959;51.960;5.886;2022-11-27T08:16:29;12.30;;;4.90;;
75377;SDS011;63959;51.960;5.886;2022-11-27T08:18:58;15.25;;;5.53;;
75377;SDS011;63959;51.960;5.886;2022-11-27T08:21:29;15.73;;;7.00;;
75377;SDS011;63959;51.960;5.886;2022-11-27T08:23:58;18.13;;;7.25;;
75377;SDS011;63959;51.960;5.886;2022-11-27T08:26:26;15.18;;;5.28;;
75377;SDS011;63959;51.960;5.886;2022-11-27T08:28:55;14.88;;;5.97;;
75377;SDS011;63959;51.960;5.886;2022-11-27T08:31:25;16.63;;;5.55;;
75377;SDS011;63959;51.960;5.886;2022-11-27T08:33:53;14.57;;;5.00;;
75377;SDS011;63959;51.960;5.886;2022-11-27T08:36:23;15.63;;;6.10;;
75377;SDS011;63959;51.960;5.886;2022-11-27T08:38:54;20.50;;;7.53;;
75377;SDS011;63959;51.960;5.886;2022-11-27T08:41:23;18.05;;;6.03;;
75377;SDS011;63959;51.960;5.886;2022-11-27T08:43:52;14.55;;;5.75;;
75377;SDS011;63959;51.960;5.886;2022-11-27T08:46:21;18.25;;;7.40;;
75377;SDS011;63959;51.960;5.886;2022-11-27T08:48:50;15.55;;;6.65;;
75377;SDS011;63959;51.960;5.886;2022-11-27T08:51:18;19.88;;;7.40;;
75377;SDS011;63959;51.960;5.886;2022-11-27T08:53:47;20.13;;;7.57;;
75377;SDS011;63959;51.960;5.886;2022-11-27T08:56:20;18.98;;;6.60;;
75377;SDS011;63959;51.960;5.886;2022-11-27T08:58:49;17.30;;;6.32;;
75377;SDS011;63959;51.960;5.886;2022-11-27T09:01:19;18.55;;;7.18;;
75377;SDS011;63959;51.960;5.886;2022-11-27T09:03:51;17.23;;;6.45;;
75377;SDS011;63959;51.960;5.886;2022-11-27T09:06:21;15.75;;;6.47;;
75377;SDS011;63959;51.960;5.886;2022-11-27T09:08:50;14.75;;;5.65;;
75377;SDS011;63959;51.960;5.886;2022-11-27T09:11:23;18.30;;;6.38;;
75377;SDS011;63959;51.960;5.886;2022-11-27T09:13:52;15.00;;;6.22;;
75377;SDS011;63959;51.960;5.886;2022-11-27T09:16:20;16.38;;;5.30;;
75377;SDS011;63959;51.960;5.886;2022-11-27T09:18:50;19.45;;;6.75;;
75377;SDS011;63959;51.960;5.886;2022-11-27T09:21:20;17.73;;;7.05;;
75377;SDS011;63959;51.960;5.886;2022-11-27T09:23:51;16.08;;;5.63;;
75377;SDS011;63959;51.960;5.886;2022-11-27T09:26:23;17.67;;;6.05;;
75377;SDS011;63959;51.960;5.886;2022-11-27T09:28:52;14.82;;;5.30;;
75377;SDS011;63959;51.960;5.886;2022-11-27T09:31:21;17.92;;;7.13;;
75377;SDS011;63959;51.960;5.886;2022-11-27T09:33:50;14.90;;;6.50;;
75377;SDS011;63959;51.960;5.886;2022-11-27T09:36:19;18.00;;;6.72;;
75377;SDS011;63959;51.960;5.886;2022-11-27T09:38:48;15.57;;;6.05;;
75377;SDS011;63959;51.960;5.886;2022-11-27T09:41:27;13.25;;;4.93;;
75377;SDS011;63959;51.960;5.886;2022-11-27T09:44:05;13.50;;;4.60;;
75377;SDS011;63959;51.960;5.886;2022-11-27T09:46:35;14.25;;;5.82;;
75377;SDS011;63959;51.960;5.886;2022-11-27T09:49:06;13.52;;;5.97;;
75377;SDS011;63959;51.960;5.886;2022-11-27T09:51:36;14.50;;;5.65;;
75377;SDS011;63959;51.960;5.886;2022-11-27T09:54:11;16.67;;;7.00;;
75377;SDS011;63959;51.960;5.886;2022-11-27T09:56:46;15.80;;;5.20;;
75377;SDS011;63959;51.960;5.886;2022-11-27T09:59:17;12.57;;;5.90;;
75377;SDS011;63959;51.960;5.886;2022-11-27T10:01:46;13.25;;;5.70;;
75377;SDS011;63959;51.960;5.886;2022-11-27T10:04:16;15.38;;;6.10;;
75377;SDS011;63959;51.960;5.886;2022-11-27T10:06:54;19.92;;;7.60;;
75377;SDS011;63959;51.960;5.886;2022-11-27T10:09:28;16.83;;;6.13;;
75377;SDS011;63959;51.960;5.886;2022-11-27T10:12:05;17.38;;;7.53;;
75377;SDS011;63959;51.960;5.886;2022-11-27T10:14:40;13.25;;;5.38;;
75377;SDS011;63959;51.960;5.886;2022-11-27T10:17:14;15.40;;;6.85;;
75377;SDS011;63959;51.960;5.886;2022-11-27T10:19:52;20.23;;;6.72;;
75377;SDS011;63959;51.960;5.886;2022-11-27T10:22:25;14.75;;;6.68;;
75377;SDS011;63959;51.960;5.886;2022-11-27T10:24:57;17.73;;;6.72;;
75377;SDS011;63959;51.960;5.886;2022-11-27T10:27:31;15.23;;;5.90;;
75377;SDS011;63959;51.960;5.886;2022-11-27T10:30:12;13.77;;;5.55;;
75377;SDS011;63959;51.960;5.886;2022-11-27T10:32:41;12.77;;;5.93;;
75377;SDS011;63959;51.960;5.886;2022-11-27T10:35:12;13.85;;;5.78;;
75377;SDS011;63959;51.960;5.886;2022-11-27T10:37:42;16.88;;;7.10;;
75377;SDS011;63959;51.960;5.886;2022-11-27T10:40:17;13.55;;;5.50;;
75377;SDS011;63959;51.960;5.886;2022-11-27T10:45:20;17.60;;;6.10;;
75377;SDS011;63959;51.960;5.886;2022-11-27T10:47:49;15.73;;;6.10;;
75377;SDS011;63959;51.960;5.886;2022-11-27T10:50:18;14.27;;;5.30;;
75377;SDS011;63959;51.960;5.886;2022-11-27T10:52:50;15.13;;;5.40;;
75377;SDS011;63959;51.960;5.886;2022-11-27T10:55:23;12.90;;;4.65;;
75377;SDS011;63959;51.960;5.886;2022-11-27T10:57:57;12.90;;;4.93;;
75377;SDS011;63959;51.960;5.886;2022-11-27T11:00:32;12.57;;;5.03;;
75377;SDS011;63959;51.960;5.886;2022-11-27T11:03:02;14.15;;;5.57;;
75377;SDS011;63959;51.960;5.886;2022-11-27T11:05:32;14.38;;;5.53;;
75377;SDS011;63959;51.960;5.886;2022-11-27T11:08:04;10.20;;;4.60;;
75377;SDS011;63959;51.960;5.886;2022-11-27T11:10:34;14.60;;;5.53;;
75377;SDS011;63959;51.960;5.886;2022-11-27T11:13:14;17.90;;;6.95;;
75377;SDS011;63959;51.960;5.886;2022-11-27T11:15:48;12.25;;;4.80;;
75377;SDS011;63959;51.960;5.886;2022-11-27T11:18:17;18.23;;;5.45;;
75377;SDS011;63959;51.960;5.886;2022-11-27T11:20:46;14.35;;;5.05;;
75377;SDS011;63959;51.960;5.886;2022-11-27T11:23:17;14.32;;;5.90;;
75377;SDS011;63959;51.960;5.886;2022-11-27T11:25:48;14.35;;;5.60;;
75377;SDS011;63959;51.960;5.886;2022-11-27T11:28:18;16.80;;;6.22;;
75377;SDS011;63959;51.960;5.886;2022-11-27T11:30:57;11.52;;;5.05;;
75377;SDS011;63959;51.960;5.886;2022-11-27T11:33:27;16.92;;;5.75;;
75377;SDS011;63959;51.960;5.886;2022-11-27T11:35:58;11.05;;;5.20;;
75377;SDS011;63959;51.960;5.886;2022-11-27T11:38:29;14.30;;;5.68;;
75377;SDS011;63959;51.960;5.886;2022-11-27T11:40:59;12.60;;;5.07;;
75377;SDS011;63959;51.960;5.886;2022-11-27T11:43:29;11.88;;;4.93;;
75377;SDS011;63959;51.960;5.886;2022-11-27T11:46:06;15.07;;;6.70;;
75377;SDS011;63959;51.960;5.886;2022-11-27T11:48:36;16.52;;;7.03;;
75377;SDS011;63959;51.960;5.886;2022-11-27T11:51:06;12.38;;;4.82;;
75377;SDS011;63959;51.960;5.886;2022-11-27T11:53:36;13.50;;;4.90;;
75377;SDS011;63959;51.960;5.886;2022-11-27T11:56:11;11.35;;;4.50;;
75377;SDS011;63959;51.960;5.886;2022-11-27T11:58:45;13.45;;;4.28;;
75377;SDS011;63959;51.960;5.886;2022-11-27T12:01:27;15.60;;;6.15;;
75377;SDS011;63959;51.960;5.886;2022-11-27T12:04:05;13.52;;;4.80;;
75377;SDS011;63959;51.960;5.886;2022-11-27T12:06:36;9.70;;;4.15;;
75377;SDS011;63959;51.960;5.886;2022-11-27T12:09:12;10.43;;;4.72;;
75377;SDS011;63959;51.960;5.886;2022-11-27T12:11:46;11.00;;;4.70;;
75377;SDS011;63959;51.960;5.886;2022-11-27T12:14:19;14.95;;;5.90;;
75377;SDS011;63959;51.960;5.886;2022-11-27T12:17:00;13.27;;;5.20;;
75377;SDS011;63959;51.960;5.886;2022-11-27T12:19:36;14.25;;;5.55;;
75377;SDS011;63959;51.960;5.886;2022-11-27T12:22:12;12.57;;;5.63;;
75377;SDS011;63959;51.960;5.886;2022-11-27T12:24:45;17.05;;;5.78;;
75377;SDS011;63959;51.960;5.886;2022-11-27T12:27:20;14.48;;;6.00;;
75377;SDS011;63959;51.960;5.886;2022-11-27T12:35:29;10.68;;;4.90;;
75377;SDS011;63959;51.960;5.886;2022-11-27T12:38:11;11.75;;;5.30;;
75377;SDS011;63959;51.960;5.886;2022-11-27T12:40:49;11.73;;;5.78;;
75377;SDS011;63959;51.960;5.886;2022-11-27T12:43:22;15.35;;;5.88;;
75377;SDS011;63959;51.960;5.886;2022-11-27T12:45:52;14.10;;;5.63;;
75377;SDS011;63959;51.960;5.886;2022-11-27T12:48:23;10.88;;;4.93;;
75377;SDS011;63959;51.960;5.886;2022-11-27T12:50:57;12.40;;;5.65;;
75377;SDS011;63959;51.960;5.886;2022-11-27T12:53:28;13.60;;;5.78;;
75377;SDS011;63959;51.960;5.886;2022-11-27T12:56:00;11.57;;;4.40;;
75377;SDS011;63959;51.960;5.886;2022-11-27T12:58:31;10.65;;;4.70;;
75377;SDS011;63959;51.960;5.886;2022-11-27T13:01:02;11.65;;;5.30;;
75377;SDS011;63959;51.960;5.886;2022-11-27T13:03:33;10.75;;;4.55;;
75377;SDS011;63959;51.960;5.886;2022-11-27T13:06:07;12.07;;;4.95;;
75377;SDS011;63959;51.960;5.886;2022-11-27T13:08:40;13.20;;;5.28;;
75377;SDS011;63959;51.960;5.886;2022-11-27T13:11:11;9.52;;;4.32;;
75377;SDS011;63959;51.960;5.886;2022-11-27T13:13:42;9.38;;;4.40;;
75377;SDS011;63959;51.960;5.886;2022-11-27T13:16:11;9.98;;;4.00;;
75377;SDS011;63959;51.960;5.886;2022-11-27T13:18:44;10.43;;;4.82;;
75377;SDS011;63959;51.960;5.886;2022-11-27T13:21:18;9.05;;;4.07;;
75377;SDS011;63959;51.960;5.886;2022-11-27T13:23:48;13.30;;;4.75;;
75377;SDS011;63959;51.960;5.886;2022-11-27T13:26:18;10.18;;;4.10;;
75377;SDS011;63959;51.960;5.886;2022-11-27T13:28:48;12.50;;;4.97;;
75377;SDS011;63959;51.960;5.886;2022-11-27T13:31:19;9.45;;;4.47;;
75377;SDS011;63959;51.960;5.886;2022-11-27T13:33:48;12.55;;;5.10;;
75377;SDS011;63959;51.960;5.886;2022-11-27T13:36:21;12.05;;;5.25;;
75377;SDS011;63959;51.960;5.886;2022-11-27T13:38:51;11.65;;;5.13;;
75377;SDS011;63959;51.960;5.886;2022-11-27T13:41:23;13.68;;;5.97;;
75377;SDS011;63959;51.960;5.886;2022-11-27T13:43:53;14.10;;;5.80;;
75377;SDS011;63959;51.960;5.886;2022-11-27T13:46:22;9.32;;;4.22;;
75377;SDS011;63959;51.960;5.886;2022-11-27T13:48:52;10.95;;;4.80;;
75377;SDS011;63959;51.960;5.886;2022-11-27T13:51:26;12.35;;;4.75;;
75377;SDS011;63959;51.960;5.886;2022-11-27T13:54:09;9.27;;;4.85;;
75377;SDS011;63959;51.960;5.886;2022-11-27T13:56:38;8.80;;;4.20;;
75377;SDS011;63959;51.960;5.886;2022-11-27T13:59:14;10.65;;;4.28;;
75377;SDS011;63959;51.960;5.886;2022-11-27T14:01:53;13.00;;;5.50;;
75377;SDS011;63959;51.960;5.886;2022-11-27T14:04:22;11.05;;;5.35;;
75377;SDS011;63959;51.960;5.886;2022-11-27T14:06:54;10.98;;;4.82;;
75377;SDS011;63959;51.960;5.886;2022-11-27T14:09:34;13.57;;;5.88;;
75377;SDS011;63959;51.960;5.886;2022-11-27T14:12:12;14.02;;;6.38;;
75377;SDS011;63959;51.960;5.886;2022-11-27T14:14:41;15.15;;;6.18;;
75377;SDS011;63959;51.960;5.886;2022-11-27T14:17:21;11.68;;;5.13;;
75377;SDS011;63959;51.960;5.886;2022-11-27T14:19:57;11.98;;;5.80;;
75377;SDS011;63959;51.960;5.886;2022-11-27T14:22:39;9.65;;;4.72;;
75377;SDS011;63959;51.960;5.886;2022-11-27T14:25:16;11.40;;;4.60;;
75377;SDS011;63959;51.960;5.886;2022-11-27T14:27:45;9.60;;;4.65;;
75377;SDS011;63959;51.960;5.886;2022-11-27T14:30:20;8.82;;;4.18;;
75377;SDS011;63959;51.960;5.886;2022-11-27T14:32:50;9.18;;;4.88;;
75377;SDS011;63959;51.960;5.886;2022-11-27T14:35:19;12.25;;;5.65;;
75377;SDS011;63959;51.960;5.886;2022-11-27T14:37:51;11.23;;;5.75;;
75377;SDS011;63959;51.960;5.886;2022-11-27T14:40:21;11.48;;;5.55;;
75377;SDS011;63959;51.960;5.886;2022-11-27T14:42:51;10.27;;;4.63;;
75377;SDS011;63959;51.960;5.886;2022-11-27T14:45:20;11.23;;;5.22;;
75377;SDS011;63959;51.960;5.886;2022-11-27T14:47:49;14.70;;;6.00;;
75377;SDS011;63959;51.960;5.886;2022-11-27T14:50:18;11.10;;;5.10;;
75377;SDS011;63959;51.960;5.886;2022-11-27T14:52:52;13.25;;;6.20;;
75377;SDS011;63959;51.960;5.886;2022-11-27T14:55:22;9.63;;;3.85;;
75377;SDS011;63959;51.960;5.886;2022-11-27T14:57:51;14.68;;;6.28;;
75377;SDS011;63959;51.960;5.886;2022-11-27T15:00:20;12.63;;;5.53;;
75377;SDS011;63959;51.960;5.886;2022-11-27T15:02:52;11.13;;;4.50;;
75377;SDS011;63959;51.960;5.886;2022-11-27T15:05:22;12.07;;;5.03;;
75377;SDS011;63959;51.960;5.886;2022-11-27T15:07:55;11.55;;;5.30;;
75377;SDS011;63959;51.960;5.886;2022-11-27T15:10:29;15.65;;;6.97;;